createdAt,value
2023-04-15T00:00:54.763Z,99623.86
2023-04-15T00:02:48.602Z,99619.71
2023-04-15T00:04:41.657Z,99620.26
2023-04-15T00:06:34.528Z,99622.47
2023-04-15T00:08:27.682Z,99624.83
2023-04-15T00:10:20.529Z,99623.70
2023-04-15T00:12:13.378Z,99624.54
2023-04-15T00:14:07.552Z,99621.85
2023-04-15T00:16:00.962Z,99619.16
2023-04-15T00:17:53.869Z,99619.45
2023-04-15T00:19:46.702Z,99621.35
2023-04-15T00:21:39.549Z,99624.31
2023-04-15T00:23:32.353Z,99624.08
2023-04-15T00:25:25.140Z,99619.54
2023-04-15T00:27:17.996Z,99622.79
2023-04-15T00:29:10.931Z,99621.39
2023-04-15T00:31:04.541Z,99622.52
2023-04-15T00:32:57.552Z,99620.33
2023-04-15T00:34:50.904Z,99621.15
2023-04-15T00:36:44.874Z,99619.98
2023-04-15T00:38:38.644Z,99620.89
2023-04-15T00:40:31.590Z,99620.13
2023-04-15T00:42:25.662Z,99615.02
2023-04-15T00:44:19.236Z,99612.64
2023-04-15T00:46:15.952Z,99612.80
2023-04-15T00:48:09.629Z,99608.54
2023-04-15T00:50:02.482Z,99610.05
2023-04-15T00:51:55.728Z,99605.81
2023-04-15T00:53:51.952Z,99606.67
2023-04-15T00:55:45.315Z,99605.00
2023-04-15T00:57:39.601Z,99602.98
2023-04-15T00:59:34.178Z,99605.16
2023-04-15T01:01:27.463Z,99605.76
2023-04-15T01:03:22.294Z,99603.57
2023-04-15T01:05:18.735Z,99607.81
2023-04-15T01:07:11.622Z,99609.66
2023-04-15T01:09:04.759Z,99607.21
2023-04-15T01:11:00.057Z,99608.58
2023-04-15T01:12:53.212Z,99608.38
2023-04-15T01:14:46.676Z,99609.64
2023-04-15T01:16:40.031Z,99608.50
2023-04-15T01:18:33.595Z,99611.09
2023-04-15T01:20:27.620Z,99613.98
2023-04-15T01:22:21.227Z,99619.14
2023-04-15T01:24:18.682Z,99618.04
2023-04-15T01:26:12.232Z,99615.16
2023-04-15T01:28:05.192Z,99617.29
2023-04-15T01:29:58.653Z,99615.31
2023-04-15T01:31:53.344Z,99618.00
2023-04-15T01:33:47.219Z,99619.77
2023-04-15T01:35:41.289Z,99621.76
2023-04-15T01:37:34.761Z,99626.02
2023-04-15T01:39:27.593Z,99624.50
2023-04-15T01:41:29.437Z,99626.08
2023-04-15T01:43:22.312Z,99625.27
2023-04-15T01:45:15.662Z,99626.61
2023-04-15T01:47:08.706Z,99630.98
2023-04-15T01:49:01.838Z,99627.27
2023-04-15T01:50:57.367Z,99628.91
2023-04-15T01:52:50.216Z,99636.88
2023-04-15T01:54:44.387Z,99634.02
2023-04-15T01:56:39.194Z,99634.32
2023-04-15T01:58:32.234Z,99631.69
2023-04-15T02:00:25.101Z,99628.21
2023-04-15T02:02:18.368Z,99631.29
2023-04-15T02:04:16.820Z,99628.80
2023-04-15T02:06:09.659Z,99627.60
2023-04-15T02:08:02.711Z,99628.92
2023-04-15T02:09:55.657Z,99628.21
2023-04-15T02:11:48.931Z,99626.70
2023-04-15T02:13:41.877Z,99626.64
2023-04-15T02:15:34.729Z,99629.31
2023-04-15T02:17:27.696Z,99628.02
2023-04-15T02:19:20.606Z,99627.48
2023-04-15T02:21:14.066Z,99628.98
2023-04-15T02:23:07.834Z,99630.52
2023-04-15T02:25:01.519Z,99629.29
2023-04-15T02:26:54.655Z,99622.71
2023-04-15T02:28:49.133Z,99625.80
2023-04-15T02:30:42.090Z,99626.27
2023-04-15T02:32:35.225Z,99627.14
2023-04-15T02:34:28.189Z,99626.90
2023-04-15T02:36:24.101Z,99624.33
2023-04-15T02:38:18.087Z,99627.47
2023-04-15T02:40:15.015Z,99628.88
2023-04-15T02:42:07.863Z,99630.34
2023-04-15T02:44:00.891Z,99628.20
2023-04-15T02:45:54.536Z,99631.07
2023-04-15T02:47:47.767Z,99627.11
2023-04-15T02:49:41.085Z,99625.58
2023-04-15T02:51:33.933Z,99625.84
2023-04-15T02:53:26.989Z,99627.59
2023-04-15T02:55:19.929Z,99629.02
2023-04-15T02:57:13.085Z,99628.13
2023-04-15T02:59:06.236Z,99632.27
2023-04-15T03:00:59.130Z,99628.10
2023-04-15T03:02:56.803Z,99630.19
2023-04-15T03:04:49.794Z,99626.31
2023-04-15T03:06:42.744Z,99627.10
2023-04-15T03:08:35.704Z,99628.58
2023-04-15T03:10:28.623Z,99629.20
2023-04-15T03:12:21.685Z,99624.88
2023-04-15T03:14:15.756Z,99629.97
2023-04-15T03:16:11.511Z,99629.79
2023-04-15T03:18:04.728Z,99627.77
2023-04-15T03:19:57.717Z,99628.36
2023-04-15T03:21:50.829Z,99628.73
2023-04-15T03:23:43.679Z,99636.12
2023-04-15T03:25:37.549Z,99636.38
2023-04-15T03:27:31.208Z,99635.10
2023-04-15T03:29:26.112Z,99635.80
2023-04-15T03:31:18.937Z,99639.91
2023-04-15T03:33:12.500Z,99638.67
2023-04-15T03:35:06.493Z,99638.68
2023-04-15T03:36:59.636Z,99646.96
2023-04-15T03:38:53.112Z,99645.42
2023-04-15T03:40:47.172Z,99646.00
2023-04-15T03:42:40.344Z,99648.80
2023-04-15T03:44:33.274Z,99648.04
2023-04-15T03:46:26.856Z,99649.02
2023-04-15T03:48:19.833Z,99651.52
2023-04-15T03:50:12.941Z,99652.64
2023-04-15T03:52:06.298Z,99652.14
2023-04-15T03:53:59.150Z,99649.44
2023-04-15T03:55:52.599Z,99654.05
2023-04-15T03:57:46.573Z,99653.99
2023-04-15T03:59:39.419Z,99657.56
2023-04-15T04:01:32.403Z,99658.35
2023-04-15T04:03:26.018Z,99656.60
2023-04-15T04:05:19.184Z,99657.16
2023-04-15T04:07:18.534Z,99657.02
2023-04-15T04:09:11.532Z,99661.95
2023-04-15T04:11:05.197Z,99663.63
2023-04-15T04:12:58.172Z,99658.67
2023-04-15T04:14:51.602Z,99658.83
2023-04-15T04:16:45.019Z,99660.02
2023-04-15T04:18:38.013Z,99657.02
2023-04-15T04:20:32.190Z,99658.33
2023-04-15T04:22:25.649Z,99659.46
2023-04-15T04:24:18.597Z,99655.07
2023-04-15T04:26:11.545Z,99656.37
2023-04-15T04:28:04.598Z,99664.36
2023-04-15T04:29:57.751Z,99657.65
2023-04-15T04:31:50.717Z,99658.72
2023-04-15T04:33:43.746Z,99661.52
2023-04-15T04:35:37.836Z,99662.85
2023-04-15T04:37:31.074Z,99666.23
2023-04-15T04:39:24.029Z,99666.44
2023-04-15T04:41:16.870Z,99665.50
2023-04-15T04:43:10.234Z,99669.74
2023-04-15T04:45:03.544Z,99671.83
2023-04-15T04:46:56.953Z,99670.35
2023-04-15T04:48:49.989Z,99670.17
2023-04-15T04:50:43.387Z,99672.43
2023-04-15T04:52:36.909Z,99674.50
2023-04-15T04:54:31.292Z,99674.95
2023-04-15T04:56:24.142Z,99673.11
2023-04-15T04:58:17.085Z,99672.21
2023-04-15T05:00:10.654Z,99675.56
2023-04-15T05:02:04.010Z,99673.10
2023-04-15T05:03:57.191Z,99679.02
2023-04-15T05:05:50.209Z,99679.02
2023-04-15T05:07:43.168Z,99680.37
2023-04-15T05:09:36.932Z,99675.42
2023-04-15T05:11:29.978Z,99677.47
2023-04-15T05:13:22.927Z,99677.98
2023-04-15T05:15:15.873Z,99675.02
2023-04-15T05:17:08.993Z,99677.80
2023-04-15T05:19:02.182Z,99679.02
2023-04-15T05:20:55.436Z,99677.71
2023-04-15T05:22:48.282Z,99683.45
2023-04-15T05:24:41.245Z,99684.83
2023-04-15T05:26:34.100Z,99685.67
2023-04-15T05:28:27.439Z,99683.36
2023-04-15T05:30:20.793Z,99684.71
2023-04-15T05:32:13.635Z,99690.56
2023-04-15T05:34:07.303Z,99685.23
2023-04-15T05:36:00.151Z,99685.44
2023-04-15T05:37:52.996Z,99687.18
2023-04-15T05:39:45.840Z,99682.58
2023-04-15T05:41:38.789Z,99684.51
2023-04-15T05:43:31.766Z,99684.79
2023-04-15T05:45:24.687Z,99691.39
2023-04-15T05:47:17.700Z,99686.77
2023-04-15T05:49:10.802Z,99686.88
2023-04-15T05:51:03.836Z,99687.47
2023-04-15T05:52:56.990Z,99687.02
2023-04-15T05:54:49.836Z,99689.43
2023-04-15T05:56:42.891Z,99691.02
2023-04-15T05:58:35.943Z,99695.98
2023-04-15T06:00:28.900Z,99693.59
2023-04-15T06:02:22.278Z,99693.66
2023-04-15T06:04:15.579Z,99693.88
2023-04-15T06:06:08.845Z,99696.08
2023-04-15T06:08:02.113Z,99698.48
2023-04-15T06:09:54.958Z,99697.11
2023-04-15T06:11:47.918Z,99698.11
2023-04-15T06:13:40.858Z,99701.41
2023-04-15T06:15:33.907Z,99702.67
2023-04-15T06:17:26.829Z,99704.84
2023-04-15T06:19:19.696Z,99703.60
2023-04-15T06:21:12.959Z,99706.85
2023-04-15T06:23:06.434Z,99704.27
2023-04-15T06:24:59.374Z,99705.56
2023-04-15T06:26:52.207Z,99707.97
2023-04-15T06:28:45.050Z,99706.68
2023-04-15T06:30:38.611Z,99708.63
2023-04-15T06:32:32.604Z,99716.25
2023-04-15T06:34:25.733Z,99711.38
2023-04-15T06:36:18.689Z,99712.39
2023-04-15T06:38:11.537Z,99717.93
2023-04-15T06:40:05.366Z,99714.70
2023-04-15T06:41:58.349Z,99716.85
2023-04-15T06:43:51.605Z,99715.02
2023-04-15T06:45:44.848Z,99715.91
2023-04-15T06:47:37.869Z,99714.97
2023-04-15T06:49:30.754Z,99715.85
2023-04-15T06:51:26.557Z,99715.49
2023-04-15T06:53:19.621Z,99721.11
2023-04-15T06:55:12.780Z,99721.05
2023-04-15T06:57:07.251Z,99725.41
2023-04-15T06:59:00.339Z,99724.96
2023-04-15T07:00:53.544Z,99726.77
2023-04-15T07:02:47.003Z,99730.33
2023-04-15T07:04:40.613Z,99729.52
2023-04-15T07:06:34.049Z,99733.80
2023-04-15T07:08:26.893Z,99732.80
2023-04-15T07:10:20.529Z,99734.39
2023-04-15T07:12:13.407Z,99738.40
2023-04-15T07:14:06.966Z,99740.52
2023-04-15T07:16:00.436Z,99739.17
2023-04-15T07:17:53.523Z,99741.16
2023-04-15T07:19:46.606Z,99744.89
2023-04-15T07:21:41.687Z,99745.14
2023-04-15T07:23:34.983Z,99749.31
2023-04-15T07:25:27.831Z,99750.64
2023-04-15T07:27:21.069Z,99752.80
2023-04-15T07:29:13.936Z,99755.77
2023-04-15T07:31:07.082Z,99752.34
2023-04-15T07:33:00.492Z,99756.73
2023-04-15T07:34:53.798Z,99755.65
2023-04-15T07:36:50.576Z,99755.23
2023-04-15T07:38:43.688Z,99751.15
2023-04-15T07:40:36.514Z,99759.09
2023-04-15T07:42:29.486Z,99758.63
2023-04-15T07:44:22.333Z,99757.81
2023-04-15T07:46:15.646Z,99757.66
2023-04-15T07:48:08.639Z,99756.73
2023-04-15T07:50:02.510Z,99762.46
2023-04-15T07:51:56.713Z,99764.94
2023-04-15T07:53:50.479Z,99761.63
2023-04-15T07:55:43.297Z,99764.02
2023-04-15T07:57:37.382Z,99766.51
2023-04-15T07:59:31.242Z,99764.31
2023-04-15T08:01:24.090Z,99766.36
2023-04-15T08:03:17.512Z,99768.48
2023-04-15T08:05:11.007Z,99770.83
2023-04-15T08:07:05.188Z,99772.74
2023-04-15T08:08:58.189Z,99772.33
2023-04-15T08:10:52.651Z,99772.38
2023-04-15T08:12:49.359Z,99774.76
2023-04-15T08:14:42.318Z,99778.42
2023-04-15T08:16:35.248Z,99780.66
2023-04-15T08:18:28.197Z,99780.27
2023-04-15T08:20:21.073Z,99783.73
2023-04-15T08:22:16.026Z,99784.26
2023-04-15T08:24:11.851Z,99784.64
2023-04-15T08:26:05.112Z,99785.70
2023-04-15T08:27:58.274Z,99787.16
2023-04-15T08:29:51.525Z,99788.95
2023-04-15T08:31:45.091Z,99787.67
2023-04-15T08:33:38.129Z,99790.95
2023-04-15T08:35:31.692Z,99789.27
2023-04-15T08:37:24.536Z,99790.94
2023-04-15T08:39:18.306Z,99792.42
2023-04-15T08:41:20.268Z,99794.24
2023-04-15T08:43:21.551Z,99798.00
2023-04-15T08:45:15.071Z,99795.42
2023-04-15T08:47:09.147Z,99797.38
2023-04-15T08:49:05.489Z,99799.44
2023-04-15T08:50:59.239Z,99801.86
2023-04-15T08:52:55.917Z,99803.51
2023-04-15T08:54:48.926Z,99805.22
2023-04-15T08:56:42.803Z,99806.94
2023-04-15T08:58:37.281Z,99804.34
2023-04-15T09:00:31.490Z,99805.48
2023-04-15T09:02:30.859Z,99809.52
2023-04-15T09:04:23.875Z,99808.75
2023-04-15T09:06:17.992Z,99813.50
2023-04-15T09:08:10.897Z,99814.79
2023-04-15T09:10:04.837Z,99811.17
2023-04-15T09:11:57.804Z,99812.11
2023-04-15T09:13:51.793Z,99809.59
2023-04-15T09:15:44.989Z,99813.36
2023-04-15T09:17:43.727Z,99813.58
2023-04-15T09:19:36.668Z,99809.79
2023-04-15T09:21:32.011Z,99811.70
2023-04-15T09:23:24.860Z,99810.11
2023-04-15T09:25:23.432Z,99812.85
2023-04-15T09:27:16.997Z,99812.17
2023-04-15T09:29:13.551Z,99814.35
2023-04-15T09:31:06.492Z,99815.21
2023-04-15T09:33:11.089Z,99815.45
2023-04-15T09:35:14.232Z,99814.70
2023-04-15T09:37:08.020Z,99816.64
2023-04-15T09:39:01.139Z,99814.95
2023-04-15T09:40:54.665Z,99816.64
2023-04-15T09:42:57.251Z,99816.71
2023-04-15T09:44:52.236Z,99818.14
2023-04-15T09:46:46.522Z,99822.66
2023-04-15T09:48:39.573Z,99819.96
2023-04-15T09:50:41.439Z,99822.33
2023-04-15T09:52:34.578Z,99822.61
2023-04-15T09:54:38.496Z,99822.27
2023-04-15T09:56:42.262Z,99823.92
2023-04-15T09:58:37.273Z,99821.17
2023-04-15T10:00:31.599Z,99822.61
2023-04-15T10:02:24.688Z,99820.52
2023-04-15T10:04:18.399Z,99823.27
2023-04-15T10:06:11.792Z,99824.98
2023-04-15T10:08:04.923Z,99826.31
2023-04-15T10:10:02.388Z,99831.42
2023-04-15T10:11:56.130Z,99835.56
2023-04-15T10:13:50.673Z,99844.61
2023-04-15T10:15:47.506Z,99844.70
2023-04-15T10:17:44.076Z,99841.14
2023-04-15T10:19:37.724Z,99844.69
2023-04-15T10:21:30.864Z,99845.55
2023-04-15T10:23:24.640Z,99847.19
2023-04-15T10:25:18.529Z,99845.90
2023-04-15T10:27:11.795Z,99844.95
2023-04-15T10:29:05.451Z,99850.39
2023-04-15T10:30:59.864Z,99849.84
2023-04-15T10:32:53.733Z,99845.41
2023-04-15T10:34:48.610Z,99849.46
2023-04-15T10:36:41.745Z,99852.03
2023-04-15T10:38:38.734Z,99850.86
2023-04-15T10:40:32.879Z,99853.49
2023-04-15T10:42:34.481Z,99854.27
2023-04-15T10:44:27.263Z,99857.14
2023-04-15T10:46:35.350Z,99854.52
2023-04-15T10:48:28.214Z,99857.54
2023-04-15T10:50:21.463Z,99860.02
2023-04-15T10:52:16.357Z,99860.30
2023-04-15T10:54:25.427Z,99862.85
2023-04-15T10:56:18.845Z,99862.86
2023-04-15T10:58:11.769Z,99866.89
2023-04-15T11:00:14.745Z,99868.41
2023-04-15T11:02:08.325Z,99876.84
2023-04-15T11:04:02.060Z,99874.02
2023-04-15T11:05:56.002Z,99874.34
2023-04-15T11:07:59.363Z,99877.95
2023-04-15T11:09:52.403Z,99879.91
2023-04-15T11:12:11.149Z,99880.52
2023-04-15T11:14:04.822Z,99881.95
2023-04-15T11:16:03.386Z,99884.93
2023-04-15T11:17:58.044Z,99885.41
2023-04-15T11:20:00.482Z,99891.30
2023-04-15T11:21:55.227Z,99892.34
2023-04-15T11:23:52.237Z,99895.48
2023-04-15T11:25:46.401Z,99898.23
2023-04-15T11:27:39.903Z,99899.15
2023-04-15T11:29:33.403Z,99901.89
2023-04-15T11:31:28.746Z,99900.61
2023-04-15T11:33:22.686Z,99903.05
2023-04-15T11:35:18.917Z,99904.31
2023-04-15T11:37:13.623Z,99904.23
2023-04-15T11:39:07.724Z,99900.91
2023-04-15T11:41:01.334Z,99901.05
2023-04-15T11:43:14.396Z,99901.70
2023-04-15T11:45:12.423Z,99902.10
2023-04-15T11:47:23.364Z,99899.66
2023-04-15T11:49:31.318Z,99906.40
2023-04-15T11:51:24.239Z,99907.41
2023-04-15T11:53:17.289Z,99915.52
2023-04-15T11:55:10.799Z,99917.51
2023-04-15T11:57:04.213Z,99916.23
2023-04-15T11:58:59.951Z,99917.27
2023-04-15T12:01:06.828Z,99920.27
2023-04-15T12:03:13.295Z,99922.36
2023-04-15T12:05:07.562Z,99923.49
2023-04-15T12:07:06.113Z,99928.48
2023-04-15T12:09:13.814Z,99927.60
2023-04-15T12:11:09.018Z,99926.55
2023-04-15T12:13:07.710Z,99928.14
2023-04-15T12:15:04.644Z,99933.25
2023-04-15T12:17:01.589Z,99933.14
2023-04-15T12:18:57.084Z,99936.10
2023-04-15T12:20:51.998Z,99938.79
2023-04-15T12:22:46.440Z,99935.14
2023-04-15T12:24:44.351Z,99936.56
2023-04-15T12:26:48.456Z,99936.05
2023-04-15T12:28:42.615Z,99941.25
2023-04-15T12:30:35.519Z,99940.88
2023-04-15T12:32:31.089Z,99940.83
2023-04-15T12:34:33.570Z,99945.82
2023-04-15T12:36:28.547Z,99947.70
2023-04-15T12:38:21.490Z,99950.84
2023-04-15T12:40:14.267Z,99949.80
2023-04-15T12:42:08.616Z,99954.50
2023-04-15T12:44:02.104Z,99955.26
2023-04-15T12:46:01.847Z,99955.05
2023-04-15T12:47:55.689Z,99953.20
2023-04-15T12:49:53.059Z,99957.45
2023-04-15T12:51:49.726Z,99958.55
2023-04-15T12:53:47.875Z,99956.32
2023-04-15T12:55:49.162Z,99960.17
2023-04-15T12:57:46.215Z,99958.33
2023-04-15T12:59:39.357Z,99957.58
2023-04-15T13:01:32.255Z,99959.98
2023-04-15T13:03:25.395Z,99964.16
2023-04-15T13:05:20.977Z,99964.77
2023-04-15T13:07:15.868Z,99965.48
2023-04-15T13:09:09.009Z,99966.48
2023-04-15T13:11:01.957Z,99969.91
2023-04-15T13:12:56.901Z,99970.31
2023-04-15T13:14:49.878Z,99971.13
2023-04-15T13:16:44.499Z,99971.59
2023-04-15T13:18:37.651Z,99972.67
2023-04-15T13:20:30.724Z,99972.85
2023-04-15T13:22:23.647Z,99975.49
2023-04-15T13:24:21.503Z,99979.05
2023-04-15T13:26:15.167Z,99979.31
2023-04-15T13:28:08.017Z,99982.33
2023-04-15T13:30:01.276Z,99982.80
2023-04-15T13:31:54.743Z,99980.35
2023-04-15T13:33:48.188Z,99983.05
2023-04-15T13:35:41.133Z,99984.85
2023-04-15T13:37:33.982Z,99987.70
2023-04-15T13:39:26.829Z,99990.48
2023-04-15T13:41:21.358Z,99991.18
2023-04-15T13:43:14.261Z,99990.14
2023-04-15T13:45:07.866Z,99992.89
2023-04-15T13:47:01.197Z,99990.77
2023-04-15T13:48:54.131Z,99995.00
2023-04-15T13:50:46.941Z,99996.17
2023-04-15T13:52:39.822Z,99991.34
2023-04-15T13:54:37.800Z,99989.23
2023-04-15T13:56:32.259Z,99991.25
2023-04-15T13:58:26.140Z,99993.34
2023-04-15T14:00:19.088Z,99994.29
2023-04-15T14:02:12.618Z,99996.50
2023-04-15T14:04:06.422Z,100004.13
2023-04-15T14:05:59.679Z,100003.36
2023-04-15T14:07:53.869Z,100000.34
2023-04-15T14:09:48.352Z,99998.11
2023-04-15T14:11:41.287Z,100003.93
2023-04-15T14:13:34.949Z,100000.86
2023-04-15T14:15:27.903Z,100000.74
2023-04-15T14:17:21.281Z,99998.73
2023-04-15T14:19:15.224Z,99999.61
2023-04-15T14:21:08.068Z,100002.06
2023-04-15T14:23:01.060Z,100004.08
2023-04-15T14:24:55.714Z,100000.90
2023-04-15T14:26:48.657Z,100003.27
2023-04-15T14:28:43.140Z,100004.23
2023-04-15T14:30:36.246Z,100008.04
2023-04-15T14:32:29.385Z,100009.39
2023-04-15T14:34:25.259Z,100012.64
2023-04-15T14:36:18.211Z,100013.23
2023-04-15T14:38:11.697Z,100014.82
2023-04-15T14:40:05.226Z,100018.09
2023-04-15T14:41:58.089Z,100018.64
2023-04-15T14:43:50.919Z,100020.55
2023-04-15T14:45:45.420Z,100026.14
2023-04-15T14:47:38.698Z,100033.74
2023-04-15T14:49:32.329Z,100030.33
2023-04-15T14:51:25.379Z,100037.21
2023-04-15T14:53:18.634Z,100035.38
2023-04-15T14:55:12.871Z,100038.89
2023-04-15T14:57:06.069Z,100037.73
2023-04-15T14:58:59.018Z,100037.28
2023-04-15T15:00:51.880Z,100042.14
2023-04-15T15:02:47.745Z,100035.97
2023-04-15T15:04:42.317Z,100043.65
2023-04-15T15:06:35.938Z,100041.42
2023-04-15T15:08:28.977Z,100041.53
2023-04-15T15:10:34.984Z,100041.75
2023-04-15T15:12:35.662Z,100045.19
2023-04-15T15:14:29.945Z,100046.33
2023-04-15T15:16:22.837Z,100049.59
2023-04-15T15:18:17.932Z,100053.25
2023-04-15T15:20:11.160Z,100050.02
2023-04-15T15:22:04.599Z,100054.98
2023-04-15T15:23:57.560Z,100052.02
2023-04-15T15:25:50.600Z,100052.34
2023-04-15T15:27:43.648Z,100054.05
2023-04-15T15:29:37.823Z,100056.90
2023-04-15T15:31:31.026Z,100054.19
2023-04-15T15:33:27.650Z,100057.15
2023-04-15T15:35:23.455Z,100057.38
2023-04-15T15:37:18.054Z,100057.46
2023-04-15T15:39:11.073Z,100057.58
2023-04-15T15:41:04.575Z,100061.27
2023-04-15T15:42:57.478Z,100057.73
2023-04-15T15:44:50.421Z,100061.79
2023-04-15T15:46:43.221Z,100065.61
2023-04-15T15:48:36.319Z,100069.23
2023-04-15T15:51:30.742Z,100071.00
2023-04-15T15:54:03.371Z,100074.23
2023-04-15T15:55:57.317Z,100076.75
2023-04-15T15:57:51.619Z,100077.45
2023-04-15T15:59:47.494Z,100075.45
2023-04-15T16:01:40.620Z,100076.23
2023-04-15T16:03:33.692Z,100079.44
2023-04-15T16:05:26.706Z,100083.13
2023-04-15T16:07:19.940Z,100084.62
2023-04-15T16:09:14.216Z,100085.55
2023-04-15T16:11:07.966Z,100088.36
2023-04-15T16:13:02.354Z,100092.02
2023-04-15T16:14:55.543Z,100090.86
2023-04-15T16:16:48.540Z,100091.88
2023-04-15T16:18:41.856Z,100093.15
2023-04-15T16:20:34.696Z,100097.42
2023-04-15T16:22:27.655Z,100097.86
2023-04-15T16:24:20.695Z,100099.24
2023-04-15T16:26:13.565Z,100100.50
2023-04-15T16:28:18.542Z,100100.21
2023-04-15T16:30:19.034Z,100101.81
2023-04-15T16:32:12.978Z,100098.78
2023-04-15T16:34:07.190Z,100103.94
2023-04-15T16:36:00.242Z,100105.24
2023-04-15T16:37:53.144Z,100111.50
2023-04-15T16:39:46.193Z,100113.85
2023-04-15T16:41:39.963Z,100116.87
2023-04-15T16:43:32.913Z,100115.12
2023-04-15T16:45:25.965Z,100118.05
2023-04-15T16:47:18.810Z,100121.29
2023-04-15T16:49:12.202Z,100121.95
2023-04-15T16:51:05.727Z,100127.83
2023-04-15T16:52:58.884Z,100123.12
2023-04-15T16:54:52.261Z,100122.65
2023-04-15T16:56:45.599Z,100123.58
2023-04-15T16:58:38.546Z,100124.94
2023-04-15T17:00:33.021Z,100124.88
2023-04-15T17:02:26.589Z,100132.10
2023-04-15T17:04:23.260Z,100130.31
2023-04-15T17:06:16.579Z,100126.14
2023-04-15T17:08:11.081Z,100128.59
2023-04-15T17:10:05.351Z,100127.11
2023-04-15T17:11:59.216Z,100126.55
2023-04-15T17:13:52.419Z,100131.36
2023-04-15T17:15:45.361Z,100132.29
2023-04-15T17:17:38.413Z,100136.81
2023-04-15T17:19:31.414Z,100142.55
2023-04-15T17:21:26.103Z,100146.20
2023-04-15T17:23:19.051Z,100144.56
2023-04-15T17:25:13.950Z,100150.42
2023-04-15T17:27:06.994Z,100149.42
2023-04-15T17:29:00.047Z,100158.02
2023-04-15T17:30:53.193Z,100160.29
2023-04-15T17:32:46.194Z,100165.48
2023-04-15T17:34:50.099Z,100167.50
2023-04-15T17:36:44.649Z,100168.95
2023-04-15T17:38:37.705Z,100170.78
2023-04-15T17:40:31.457Z,100171.27
2023-04-15T17:42:24.384Z,100173.42
2023-04-15T17:44:17.255Z,100169.91
2023-04-15T17:46:12.218Z,100168.67
2023-04-15T17:48:05.464Z,100168.52
2023-04-15T17:49:58.561Z,100167.14
2023-04-15T17:51:55.085Z,100164.88
2023-04-15T17:53:48.340Z,100170.86
2023-04-15T17:55:41.189Z,100178.03
2023-04-15T17:57:34.134Z,100183.19
2023-04-15T17:59:28.004Z,100189.70
2023-04-15T18:01:22.460Z,100190.19
2023-04-15T18:03:15.703Z,100195.73
2023-04-15T18:05:09.605Z,100196.89
2023-04-15T18:07:02.680Z,100199.28
2023-04-15T18:08:56.337Z,100204.11
2023-04-15T18:10:49.280Z,100204.63
2023-04-15T18:12:42.634Z,100205.22
2023-04-15T18:14:39.492Z,100203.75
2023-04-15T18:16:33.032Z,100207.11
2023-04-15T18:18:26.599Z,100213.33
2023-04-15T18:20:19.758Z,100214.96
2023-04-15T18:22:13.115Z,100214.68
2023-04-15T18:24:07.161Z,100216.98
2023-04-15T18:26:00.779Z,100216.49
2023-04-15T18:27:55.045Z,100221.03
2023-04-15T18:29:48.384Z,100225.75
2023-04-15T18:31:42.183Z,100229.08
2023-04-15T18:33:36.022Z,100227.46
2023-04-15T18:35:29.997Z,100230.90
2023-04-15T18:37:23.361Z,100229.46
2023-04-15T18:39:17.126Z,100232.47
2023-04-15T18:41:10.238Z,100235.58
2023-04-15T18:43:03.532Z,100237.02
2023-04-15T18:44:56.694Z,100235.89
2023-04-15T18:46:50.144Z,100236.95
2023-04-15T18:48:43.092Z,100239.48
2023-04-15T18:50:36.157Z,100235.70
2023-04-15T18:52:30.030Z,100228.77
2023-04-15T18:54:23.588Z,100234.17
2023-04-15T18:56:17.457Z,100231.21
2023-04-15T18:58:11.123Z,100233.05
2023-04-15T19:00:05.049Z,100233.10
2023-04-15T19:01:59.719Z,100231.70
2023-04-15T19:03:53.050Z,100232.84
2023-04-15T19:05:46.279Z,100232.73
2023-04-15T19:07:39.743Z,100232.33
2023-04-15T19:09:34.147Z,100230.19
2023-04-15T19:11:27.281Z,100231.83
2023-04-15T19:13:20.737Z,100234.80
2023-04-15T19:15:13.683Z,100235.77
2023-04-15T19:17:07.243Z,100236.29
2023-04-15T19:19:00.499Z,100240.62
2023-04-15T19:20:55.904Z,100242.78
2023-04-15T19:22:49.165Z,100245.88
2023-04-15T19:24:42.318Z,100245.13
2023-04-15T19:26:36.997Z,100243.34
2023-04-15T19:28:30.573Z,100243.02
2023-04-15T19:30:23.435Z,100243.61
2023-04-15T19:32:16.695Z,100242.23
2023-04-15T19:34:10.332Z,100239.81
2023-04-15T19:36:06.930Z,100244.16
2023-04-15T19:38:01.052Z,100239.10
2023-04-15T19:39:55.427Z,100230.49
2023-04-15T19:41:48.588Z,100232.89
2023-04-15T19:43:42.138Z,100234.11
2023-04-15T19:45:35.603Z,100236.37
2023-04-15T19:47:28.921Z,100236.84
2023-04-15T19:49:22.319Z,100237.77
2023-04-15T19:51:15.673Z,100241.65
2023-04-15T19:53:08.624Z,100246.42
2023-04-15T19:55:01.774Z,100253.95
2023-04-15T19:56:54.723Z,100263.83
2023-04-15T19:58:52.823Z,100266.58
2023-04-15T20:00:46.060Z,100271.67
2023-04-15T20:02:39.235Z,100268.82
2023-04-15T20:04:32.478Z,100270.29
2023-04-15T20:06:27.653Z,100271.94
2023-04-15T20:08:20.811Z,100273.73
2023-04-15T20:10:13.693Z,100278.92
2023-04-15T20:12:49.389Z,100280.59
2023-04-15T20:14:19.563Z,100285.22
2023-04-15T20:16:13.449Z,100285.20
2023-04-15T20:18:06.380Z,100282.63
2023-04-15T20:19:59.254Z,100287.45
2023-04-15T20:21:54.052Z,100288.85
2023-04-15T20:23:46.958Z,100286.98
2023-04-15T20:25:39.806Z,100292.46
2023-04-15T20:27:32.669Z,100291.60
2023-04-15T20:29:25.506Z,100295.16
2023-04-15T20:31:18.370Z,100298.01
2023-04-15T20:33:11.681Z,100299.39
2023-04-15T20:35:05.692Z,100302.52
2023-04-15T20:36:58.618Z,100307.21
2023-04-15T20:38:51.464Z,100313.45
2023-04-15T20:40:44.414Z,100315.20
2023-04-15T20:42:40.246Z,100314.66
2023-04-15T20:44:34.617Z,100315.46
2023-04-15T20:46:28.055Z,100315.96
2023-04-15T20:48:21.329Z,100312.67
2023-04-15T20:50:14.173Z,100318.70
2023-04-15T20:52:08.555Z,100322.01
2023-04-15T20:54:02.066Z,100326.32
2023-04-15T20:55:54.837Z,100329.04
2023-04-15T20:57:48.848Z,100334.89
2023-04-15T20:59:41.690Z,100333.41
2023-04-15T21:01:34.661Z,100332.33
2023-04-15T21:03:27.991Z,100333.64
2023-04-15T21:05:21.244Z,100337.00
2023-04-15T21:07:14.071Z,100338.38
2023-04-15T21:09:07.349Z,100339.13
2023-04-15T21:11:00.426Z,100337.27
2023-04-15T21:12:53.223Z,100339.47
2023-04-15T21:14:46.042Z,100340.41
2023-04-15T21:16:38.865Z,100345.45
2023-04-15T21:18:31.654Z,100346.03
2023-04-15T21:20:24.550Z,100349.05
2023-04-15T21:22:17.478Z,100349.73
2023-04-15T21:24:10.423Z,100350.20
2023-04-15T21:26:03.468Z,100358.89
2023-04-15T21:27:56.515Z,100359.59
2023-04-15T21:29:49.362Z,100361.87
2023-04-15T21:31:42.411Z,100362.73
2023-04-15T21:33:35.667Z,100364.42
2023-04-15T21:35:30.358Z,100367.22
2023-04-15T21:37:23.410Z,100367.73
2023-04-15T21:39:17.212Z,100368.96
2023-04-15T21:41:10.432Z,100370.44
2023-04-15T21:43:03.479Z,100373.40
2023-04-15T21:44:56.528Z,100376.52
2023-04-15T21:46:49.396Z,100374.73
2023-04-15T21:48:42.350Z,100378.22
2023-04-15T21:50:38.039Z,100376.65
2023-04-15T21:52:30.809Z,100373.44
2023-04-15T21:54:23.729Z,100380.99
2023-04-15T21:56:16.883Z,100380.73
2023-04-15T21:58:09.885Z,100383.59
2023-04-15T22:00:05.105Z,100384.41
2023-04-15T22:02:00.953Z,100385.80
2023-04-15T22:03:54.186Z,100393.84
2023-04-15T22:05:47.267Z,100393.65
2023-04-15T22:07:40.202Z,100391.24